sensor_id;sensor_type;location;lat;lon;timestamp;P1;durP1;ratioP1;P2;durP2;ratioP2
5085;SDS011;4715;51.660;7.082;2024-01-06T00:00:19;12.40;;;10.60;;
5085;SDS011;4715;51.660;7.082;2024-01-06T00:02:43;13.57;;;10.10;;
5085;SDS011;4715;51.660;7.082;2024-01-06T00:05:05;14.50;;;11.00;;
5085;SDS011;4715;51.660;7.082;2024-01-06T00:07:27;13.20;;;10.37;;
5085;SDS011;4715;51.660;7.082;2024-01-06T00:09:49;12.50;;;9.87;;
5085;SDS011;4715;51.660;7.082;2024-01-06T00:12:11;11.80;;;9.83;;
5085;SDS011;4715;51.660;7.082;2024-01-06T00:14:33;11.70;;;9.30;;
5085;SDS011;4715;51.660;7.082;2024-01-06T00:16:57;9.87;;;8.30;;
5085;SDS011;4715;51.660;7.082;2024-01-06T00:19:19;8.40;;;7.60;;
5085;SDS011;4715;51.660;7.082;2024-01-06T00:21:41;9.93;;;8.10;;
5085;SDS011;4715;51.660;7.082;2024-01-06T00:24:05;9.23;;;8.07;;
5085;SDS011;4715;51.660;7.082;2024-01-06T00:26:27;12.20;;;9.23;;
5085;SDS011;4715;51.660;7.082;2024-01-06T00:28:50;14.07;;;10.70;;
5085;SDS011;4715;51.660;7.082;2024-01-06T00:31:13;16.40;;;11.70;;
5085;SDS011;4715;51.660;7.082;2024-01-06T00:33:36;13.60;;;10.90;;
5085;SDS011;4715;51.660;7.082;2024-01-06T00:35:58;16.60;;;11.90;;
5085;SDS011;4715;51.660;7.082;2024-01-06T00:38:20;12.73;;;10.73;;
5085;SDS011;4715;51.660;7.082;2024-01-06T00:40:41;14.00;;;11.83;;
5085;SDS011;4715;51.660;7.082;2024-01-06T00:43:04;17.87;;;12.17;;
5085;SDS011;4715;51.660;7.082;2024-01-06T00:45:27;16.50;;;11.70;;
5085;SDS011;4715;51.660;7.082;2024-01-06T00:47:50;16.77;;;11.80;;
5085;SDS011;4715;51.660;7.082;2024-01-06T00:50:14;23.53;;;13.80;;
5085;SDS011;4715;51.660;7.082;2024-01-06T00:52:37;20.57;;;13.77;;
5085;SDS011;4715;51.660;7.082;2024-01-06T00:54:58;20.80;;;13.40;;
5085;SDS011;4715;51.660;7.082;2024-01-06T00:57:20;17.90;;;12.90;;
5085;SDS011;4715;51.660;7.082;2024-01-06T00:59:44;19.90;;;13.57;;
5085;SDS011;4715;51.660;7.082;2024-01-06T01:02:06;20.57;;;14.17;;
5085;SDS011;4715;51.660;7.082;2024-01-06T01:04:27;20.07;;;14.43;;
5085;SDS011;4715;51.660;7.082;2024-01-06T01:06:51;23.90;;;14.70;;
5085;SDS011;4715;51.660;7.082;2024-01-06T01:09:13;25.07;;;16.47;;
5085;SDS011;4715;51.660;7.082;2024-01-06T01:11:36;18.27;;;12.47;;
5085;SDS011;4715;51.660;7.082;2024-01-06T01:13:58;20.63;;;13.40;;
5085;SDS011;4715;51.660;7.082;2024-01-06T01:16:19;18.83;;;13.73;;
5085;SDS011;4715;51.660;7.082;2024-01-06T01:18:44;20.37;;;14.03;;
5085;SDS011;4715;51.660;7.082;2024-01-06T01:21:06;23.63;;;14.93;;
5085;SDS011;4715;51.660;7.082;2024-01-06T01:23:29;17.40;;;12.57;;
5085;SDS011;4715;51.660;7.082;2024-01-06T01:25:51;19.27;;;13.57;;
5085;SDS011;4715;51.660;7.082;2024-01-06T01:28:13;19.00;;;11.80;;
5085;SDS011;4715;51.660;7.082;2024-01-06T01:30:35;14.27;;;10.70;;
5085;SDS011;4715;51.660;7.082;2024-01-06T01:32:58;14.43;;;11.27;;
5085;SDS011;4715;51.660;7.082;2024-01-06T01:35:20;15.13;;;11.03;;
5085;SDS011;4715;51.660;7.082;2024-01-06T01:37:44;13.73;;;10.80;;
5085;SDS011;4715;51.660;7.082;2024-01-06T01:40:08;17.27;;;11.07;;
5085;SDS011;4715;51.660;7.082;2024-01-06T01:42:30;18.50;;;12.50;;
5085;SDS011;4715;51.660;7.082;2024-01-06T01:44:52;12.50;;;9.10;;
5085;SDS011;4715;51.660;7.082;2024-01-06T01:47:15;14.30;;;9.97;;
5085;SDS011;4715;51.660;7.082;2024-01-06T01:49:38;13.03;;;9.87;;
5085;SDS011;4715;51.660;7.082;2024-01-06T01:52:01;13.57;;;10.40;;
5085;SDS011;4715;51.660;7.082;2024-01-06T01:54:23;15.40;;;8.53;;
5085;SDS011;4715;51.660;7.082;2024-01-06T01:56:47;10.10;;;8.03;;
5085;SDS011;4715;51.660;7.082;2024-01-06T01:59:09;10.07;;;7.70;;
5085;SDS011;4715;51.660;7.082;2024-01-06T02:01:33;10.97;;;7.90;;
5085;SDS011;4715;51.660;7.082;2024-01-06T02:03:55;15.97;;;8.40;;
5085;SDS011;4715;51.660;7.082;2024-01-06T02:06:18;11.00;;;7.10;;
5085;SDS011;4715;51.660;7.082;2024-01-06T02:08:40;10.63;;;7.37;;
5085;SDS011;4715;51.660;7.082;2024-01-06T02:11:02;7.43;;;6.17;;
5085;SDS011;4715;51.660;7.082;2024-01-06T02:13:29;9.00;;;6.70;;
5085;SDS011;4715;51.660;7.082;2024-01-06T02:15:55;11.60;;;6.90;;
5085;SDS011;4715;51.660;7.082;2024-01-06T02:18:17;8.40;;;6.43;;
5085;SDS011;4715;51.660;7.082;2024-01-06T02:20:39;8.40;;;6.20;;
5085;SDS011;4715;51.660;7.082;2024-01-06T02:23:05;7.43;;;5.73;;
5085;SDS011;4715;51.660;7.082;2024-01-06T02:25:27;6.50;;;5.23;;
5085;SDS011;4715;51.660;7.082;2024-01-06T02:27:49;7.80;;;6.17;;
5085;SDS011;4715;51.660;7.082;2024-01-06T02:30:11;8.67;;;6.17;;
5085;SDS011;4715;51.660;7.082;2024-01-06T02:32:37;7.10;;;5.83;;
5085;SDS011;4715;51.660;7.082;2024-01-06T02:35:01;5.70;;;5.00;;
5085;SDS011;4715;51.660;7.082;2024-01-06T02:37:24;7.67;;;6.00;;
5085;SDS011;4715;51.660;7.082;2024-01-06T02:39:48;7.20;;;5.23;;
5085;SDS011;4715;51.660;7.082;2024-01-06T02:42:10;6.50;;;5.07;;
5085;SDS011;4715;51.660;7.082;2024-01-06T02:44:31;7.13;;;5.10;;
5085;SDS011;4715;51.660;7.082;2024-01-06T02:46:53;6.50;;;4.57;;
5085;SDS011;4715;51.660;7.082;2024-01-06T02:49:15;9.30;;;5.07;;
5085;SDS011;4715;51.660;7.082;2024-01-06T02:51:37;5.80;;;5.20;;
5085;SDS011;4715;51.660;7.082;2024-01-06T02:53:59;7.73;;;5.80;;
5085;SDS011;4715;51.660;7.082;2024-01-06T02:56:22;5.80;;;5.10;;
5085;SDS011;4715;51.660;7.082;2024-01-06T02:58:44;9.10;;;6.60;;
5085;SDS011;4715;51.660;7.082;2024-01-06T03:01:06;7.07;;;5.23;;
5085;SDS011;4715;51.660;7.082;2024-01-06T03:03:29;7.10;;;5.40;;
5085;SDS011;4715;51.660;7.082;2024-01-06T03:05:50;6.60;;;5.27;;
5085;SDS011;4715;51.660;7.082;2024-01-06T03:08:12;6.20;;;4.93;;
5085;SDS011;4715;51.660;7.082;2024-01-06T03:10:34;5.90;;;4.70;;
5085;SDS011;4715;51.660;7.082;2024-01-06T03:12:59;6.10;;;5.20;;
5085;SDS011;4715;51.660;7.082;2024-01-06T03:15:22;7.57;;;5.67;;
5085;SDS011;4715;51.660;7.082;2024-01-06T03:17:43;8.27;;;5.30;;
5085;SDS011;4715;51.660;7.082;2024-01-06T03:20:08;7.50;;;6.00;;
5085;SDS011;4715;51.660;7.082;2024-01-06T03:22:30;9.17;;;6.23;;
5085;SDS011;4715;51.660;7.082;2024-01-06T03:24:52;7.20;;;5.80;;
5085;SDS011;4715;51.660;7.082;2024-01-06T03:27:14;8.37;;;5.77;;
5085;SDS011;4715;51.660;7.082;2024-01-06T03:29:37;10.93;;;7.20;;
5085;SDS011;4715;51.660;7.082;2024-01-06T03:31:59;9.73;;;6.23;;
5085;SDS011;4715;51.660;7.082;2024-01-06T03:34:21;9.97;;;6.83;;
5085;SDS011;4715;51.660;7.082;2024-01-06T03:36:43;10.20;;;6.77;;
5085;SDS011;4715;51.660;7.082;2024-01-06T03:39:07;10.30;;;6.83;;
5085;SDS011;4715;51.660;7.082;2024-01-06T03:41:30;9.83;;;6.57;;
5085;SDS011;4715;51.660;7.082;2024-01-06T03:43:52;8.60;;;6.10;;
5085;SDS011;4715;51.660;7.082;2024-01-06T03:46:15;11.33;;;6.43;;
5085;SDS011;4715;51.660;7.082;2024-01-06T03:48:37;10.30;;;6.37;;
5085;SDS011;4715;51.660;7.082;2024-01-06T03:51:00;10.30;;;6.43;;
5085;SDS011;4715;51.660;7.082;2024-01-06T03:53:23;9.97;;;6.60;;
5085;SDS011;4715;51.660;7.082;2024-01-06T03:55:45;7.30;;;6.07;;
5085;SDS011;4715;51.660;7.082;2024-01-06T03:58:06;6.53;;;5.43;;
5085;SDS011;4715;51.660;7.082;2024-01-06T04:00:28;7.37;;;5.20;;
5085;SDS011;4715;51.660;7.082;2024-01-06T04:02:55;8.83;;;5.57;;
5085;SDS011;4715;51.660;7.082;2024-01-06T04:05:17;8.40;;;5.70;;
5085;SDS011;4715;51.660;7.082;2024-01-06T04:07:41;8.20;;;5.83;;
5085;SDS011;4715;51.660;7.082;2024-01-06T04:10:04;8.17;;;6.07;;
5085;SDS011;4715;51.660;7.082;2024-01-06T04:12:26;8.27;;;6.13;;
5085;SDS011;4715;51.660;7.082;2024-01-06T04:14:48;8.10;;;5.17;;
5085;SDS011;4715;51.660;7.082;2024-01-06T04:17:10;7.00;;;5.60;;
5085;SDS011;4715;51.660;7.082;2024-01-06T04:19:33;8.70;;;6.20;;
5085;SDS011;4715;51.660;7.082;2024-01-06T04:21:55;9.03;;;6.00;;
5085;SDS011;4715;51.660;7.082;2024-01-06T04:24:17;8.13;;;6.10;;
5085;SDS011;4715;51.660;7.082;2024-01-06T04:26:39;9.00;;;6.70;;
5085;SDS011;4715;51.660;7.082;2024-01-06T04:29:04;10.97;;;8.27;;
5085;SDS011;4715;51.660;7.082;2024-01-06T04:31:26;10.67;;;6.93;;
5085;SDS011;4715;51.660;7.082;2024-01-06T04:33:48;12.87;;;8.20;;
5085;SDS011;4715;51.660;7.082;2024-01-06T04:36:11;9.60;;;6.77;;
5085;SDS011;4715;51.660;7.082;2024-01-06T04:38:33;12.83;;;7.70;;
5085;SDS011;4715;51.660;7.082;2024-01-06T04:40:55;10.33;;;7.30;;
5085;SDS011;4715;51.660;7.082;2024-01-06T04:43:17;10.00;;;7.47;;
5085;SDS011;4715;51.660;7.082;2024-01-06T04:45:39;10.67;;;7.37;;
5085;SDS011;4715;51.660;7.082;2024-01-06T04:48:01;11.40;;;7.33;;
5085;SDS011;4715;51.660;7.082;2024-01-06T04:50:23;9.67;;;6.20;;
5085;SDS011;4715;51.660;7.082;2024-01-06T04:52:48;8.80;;;6.20;;
5085;SDS011;4715;51.660;7.082;2024-01-06T04:55:10;9.40;;;6.80;;
5085;SDS011;4715;51.660;7.082;2024-01-06T04:57:32;10.37;;;6.47;;
5085;SDS011;4715;51.660;7.082;2024-01-06T04:59:54;7.77;;;6.00;;
5085;SDS011;4715;51.660;7.082;2024-01-06T05:02:15;10.67;;;7.53;;
5085;SDS011;4715;51.660;7.082;2024-01-06T05:04:37;6.93;;;5.97;;
5085;SDS011;4715;51.660;7.082;2024-01-06T05:06:59;10.53;;;6.77;;
5085;SDS011;4715;51.660;7.082;2024-01-06T05:09:22;11.73;;;7.10;;
5085;SDS011;4715;51.660;7.082;2024-01-06T05:11:44;8.20;;;6.17;;
5085;SDS011;4715;51.660;7.082;2024-01-06T05:14:06;7.40;;;5.83;;
5085;SDS011;4715;51.660;7.082;2024-01-06T05:16:28;7.73;;;5.70;;
5085;SDS011;4715;51.660;7.082;2024-01-06T05:18:50;9.43;;;6.67;;
5085;SDS011;4715;51.660;7.082;2024-01-06T05:21:12;9.47;;;6.67;;
5085;SDS011;4715;51.660;7.082;2024-01-06T05:23:34;6.67;;;5.80;;
5085;SDS011;4715;51.660;7.082;2024-01-06T05:25:57;7.53;;;5.60;;
5085;SDS011;4715;51.660;7.082;2024-01-06T05:28:19;9.83;;;6.60;;
5085;SDS011;4715;51.660;7.082;2024-01-06T05:30:40;8.77;;;6.37;;
5085;SDS011;4715;51.660;7.082;2024-01-06T05:33:03;10.70;;;6.60;;
5085;SDS011;4715;51.660;7.082;2024-01-06T05:35:25;7.27;;;5.60;;
5085;SDS011;4715;51.660;7.082;2024-01-06T05:37:47;9.60;;;7.13;;
5085;SDS011;4715;51.660;7.082;2024-01-06T05:40:09;10.07;;;6.10;;
5085;SDS011;4715;51.660;7.082;2024-01-06T05:42:33;6.83;;;5.60;;
5085;SDS011;4715;51.660;7.082;2024-01-06T05:44:54;7.63;;;5.60;;
5085;SDS011;4715;51.660;7.082;2024-01-06T05:47:15;8.50;;;5.90;;
5085;SDS011;4715;51.660;7.082;2024-01-06T05:49:41;8.00;;;5.87;;
5085;SDS011;4715;51.660;7.082;2024-01-06T05:52:03;6.63;;;5.93;;
5085;SDS011;4715;51.660;7.082;2024-01-06T05:54:25;9.00;;;5.43;;
5085;SDS011;4715;51.660;7.082;2024-01-06T05:56:48;8.00;;;6.57;;
5085;SDS011;4715;51.660;7.082;2024-01-06T05:59:11;14.47;;;8.50;;
5085;SDS011;4715;51.660;7.082;2024-01-06T06:01:35;11.23;;;7.00;;
5085;SDS011;4715;51.660;7.082;2024-01-06T06:03:57;12.07;;;8.27;;
5085;SDS011;4715;51.660;7.082;2024-01-06T06:06:19;11.03;;;7.50;;
5085;SDS011;4715;51.660;7.082;2024-01-06T06:08:41;11.73;;;8.10;;
5085;SDS011;4715;51.660;7.082;2024-01-06T06:11:04;11.33;;;7.40;;
5085;SDS011;4715;51.660;7.082;2024-01-06T06:13:30;11.73;;;6.70;;
5085;SDS011;4715;51.660;7.082;2024-01-06T06:15:54;11.10;;;7.37;;
5085;SDS011;4715;51.660;7.082;2024-01-06T06:18:16;12.07;;;7.90;;
5085;SDS011;4715;51.660;7.082;2024-01-06T06:20:39;12.80;;;7.70;;
5085;SDS011;4715;51.660;7.082;2024-01-06T06:23:03;11.47;;;6.93;;
5085;SDS011;4715;51.660;7.082;2024-01-06T06:25:25;15.87;;;9.30;;
5085;SDS011;4715;51.660;7.082;2024-01-06T06:27:48;10.00;;;7.63;;
5085;SDS011;4715;51.660;7.082;2024-01-06T06:30:10;11.00;;;6.87;;
5085;SDS011;4715;51.660;7.082;2024-01-06T06:32:35;11.30;;;7.10;;
5085;SDS011;4715;51.660;7.082;2024-01-06T06:34:58;13.10;;;7.40;;
5085;SDS011;4715;51.660;7.082;2024-01-06T06:37:21;11.37;;;6.97;;
5085;SDS011;4715;51.660;7.082;2024-01-06T06:39:43;12.23;;;7.33;;
5085;SDS011;4715;51.660;7.082;2024-01-06T06:42:05;10.87;;;6.80;;
5085;SDS011;4715;51.660;7.082;2024-01-06T06:44:27;7.70;;;6.70;;
5085;SDS011;4715;51.660;7.082;2024-01-06T06:46:49;9.37;;;5.47;;
5085;SDS011;4715;51.660;7.082;2024-01-06T06:49:14;11.03;;;6.80;;
5085;SDS011;4715;51.660;7.082;2024-01-06T06:51:36;9.53;;;5.73;;
5085;SDS011;4715;51.660;7.082;2024-01-06T06:54:06;12.87;;;6.50;;
5085;SDS011;4715;51.660;7.082;2024-01-06T06:56:27;9.23;;;6.40;;
5085;SDS011;4715;51.660;7.082;2024-01-06T06:58:49;8.37;;;6.07;;
5085;SDS011;4715;51.660;7.082;2024-01-06T07:01:13;7.17;;;5.50;;
5085;SDS011;4715;51.660;7.082;2024-01-06T07:03:35;11.00;;;6.83;;
5085;SDS011;4715;51.660;7.082;2024-01-06T07:05:58;9.17;;;6.50;;
5085;SDS011;4715;51.660;7.082;2024-01-06T07:08:20;11.33;;;5.43;;
5085;SDS011;4715;51.660;7.082;2024-01-06T07:10:42;8.40;;;6.00;;
5085;SDS011;4715;51.660;7.082;2024-01-06T07:13:04;7.60;;;5.93;;
5085;SDS011;4715;51.660;7.082;2024-01-06T07:15:26;8.70;;;5.20;;
5085;SDS011;4715;51.660;7.082;2024-01-06T07:17:48;9.27;;;5.90;;
5085;SDS011;4715;51.660;7.082;2024-01-06T07:20:10;7.53;;;4.80;;
5085;SDS011;4715;51.660;7.082;2024-01-06T07:22:33;8.63;;;5.17;;
5085;SDS011;4715;51.660;7.082;2024-01-06T07:24:55;10.13;;;4.57;;
5085;SDS011;4715;51.660;7.082;2024-01-06T07:27:17;8.23;;;5.70;;
5085;SDS011;4715;51.660;7.082;2024-01-06T07:29:40;6.03;;;4.90;;
5085;SDS011;4715;51.660;7.082;2024-01-06T07:32:01;10.80;;;5.57;;
5085;SDS011;4715;51.660;7.082;2024-01-06T07:34:23;7.67;;;5.20;;
5085;SDS011;4715;51.660;7.082;2024-01-06T07:36:45;10.07;;;6.00;;
5085;SDS011;4715;51.660;7.082;2024-01-06T07:39:09;8.73;;;5.97;;
5085;SDS011;4715;51.660;7.082;2024-01-06T07:41:33;8.27;;;5.30;;
5085;SDS011;4715;51.660;7.082;2024-01-06T07:43:54;10.67;;;6.97;;
5085;SDS011;4715;51.660;7.082;2024-01-06T07:46:16;10.67;;;5.90;;
5085;SDS011;4715;51.660;7.082;2024-01-06T07:48:38;7.90;;;5.70;;
5085;SDS011;4715;51.660;7.082;2024-01-06T07:51:00;11.10;;;6.77;;
5085;SDS011;4715;51.660;7.082;2024-01-06T07:53:23;10.47;;;6.67;;
5085;SDS011;4715;51.660;7.082;2024-01-06T07:55:46;9.53;;;6.30;;
5085;SDS011;4715;51.660;7.082;2024-01-06T07:58:09;10.37;;;6.67;;
5085;SDS011;4715;51.660;7.082;2024-01-06T08:00:31;9.70;;;6.30;;
5085;SDS011;4715;51.660;7.082;2024-01-06T08:02:53;9.20;;;6.73;;
5085;SDS011;4715;51.660;7.082;2024-01-06T08:05:16;7.87;;;5.33;;
5085;SDS011;4715;51.660;7.082;2024-01-06T08:07:37;7.13;;;5.23;;
5085;SDS011;4715;51.660;7.082;2024-01-06T08:10:00;9.07;;;6.00;;
5085;SDS011;4715;51.660;7.082;2024-01-06T08:12:26;8.30;;;6.03;;
5085;SDS011;4715;51.660;7.082;2024-01-06T08:14:48;9.37;;;7.40;;
5085;SDS011;4715;51.660;7.082;2024-01-06T08:17:10;7.50;;;5.40;;
5085;SDS011;4715;51.660;7.082;2024-01-06T08:19:31;9.53;;;5.93;;
5085;SDS011;4715;51.660;7.082;2024-01-06T08:21:55;10.13;;;6.60;;
5085;SDS011;4715;51.660;7.082;2024-01-06T08:24:16;9.23;;;5.97;;
5085;SDS011;4715;51.660;7.082;2024-01-06T08:26:38;8.87;;;6.30;;
5085;SDS011;4715;51.660;7.082;2024-01-06T08:29:02;9.60;;;6.17;;
5085;SDS011;4715;51.660;7.082;2024-01-06T08:31:23;6.83;;;5.50;;
5085;SDS011;4715;51.660;7.082;2024-01-06T08:33:45;5.93;;;4.70;;
5085;SDS011;4715;51.660;7.082;2024-01-06T08:36:07;5.90;;;4.93;;
5085;SDS011;4715;51.660;7.082;2024-01-06T08:38:32;5.27;;;4.70;;
5085;SDS011;4715;51.660;7.082;2024-01-06T08:40:54;6.90;;;5.57;;
5085;SDS011;4715;51.660;7.082;2024-01-06T08:43:17;7.73;;;5.50;;
5085;SDS011;4715;51.660;7.082;2024-01-06T08:45:43;5.30;;;4.80;;
5085;SDS011;4715;51.660;7.082;2024-01-06T08:48:05;6.70;;;5.33;;
5085;SDS011;4715;51.660;7.082;2024-01-06T08:50:27;5.77;;;4.80;;
5085;SDS011;4715;51.660;7.082;2024-01-06T08:52:49;6.97;;;4.90;;
5085;SDS011;4715;51.660;7.082;2024-01-06T08:55:11;7.53;;;4.73;;
5085;SDS011;4715;51.660;7.082;2024-01-06T08:57:33;5.70;;;4.73;;
5085;SDS011;4715;51.660;7.082;2024-01-06T08:59:55;4.40;;;3.73;;
5085;SDS011;4715;51.660;7.082;2024-01-06T09:02:21;5.30;;;4.80;;
5085;SDS011;4715;51.660;7.082;2024-01-06T09:04:42;5.27;;;4.10;;
5085;SDS011;4715;51.660;7.082;2024-01-06T09:07:04;4.70;;;4.20;;
5085;SDS011;4715;51.660;7.082;2024-01-06T09:09:27;4.60;;;4.17;;
5085;SDS011;4715;51.660;7.082;2024-01-06T09:11:50;5.20;;;4.60;;
5085;SDS011;4715;51.660;7.082;2024-01-06T09:14:12;9.27;;;5.20;;
5085;SDS011;4715;51.660;7.082;2024-01-06T09:16:34;10.60;;;5.70;;
5085;SDS011;4715;51.660;7.082;2024-01-06T09:18:58;9.27;;;4.63;;
5085;SDS011;4715;51.660;7.082;2024-01-06T09:21:22;8.87;;;5.57;;
5085;SDS011;4715;51.660;7.082;2024-01-06T09:23:46;9.90;;;5.17;;
5085;SDS011;4715;51.660;7.082;2024-01-06T09:26:08;7.90;;;5.60;;
5085;SDS011;4715;51.660;7.082;2024-01-06T09:28:30;9.97;;;4.60;;
5085;SDS011;4715;51.660;7.082;2024-01-06T09:30:51;10.93;;;6.27;;
5085;SDS011;4715;51.660;7.082;2024-01-06T09:33:15;5.50;;;4.50;;
5085;SDS011;4715;51.660;7.082;2024-01-06T09:35:39;6.70;;;6.00;;
5085;SDS011;4715;51.660;7.082;2024-01-06T09:38:00;6.20;;;5.00;;
5085;SDS011;4715;51.660;7.082;2024-01-06T09:40:23;8.40;;;5.57;;
5085;SDS011;4715;51.660;7.082;2024-01-06T09:42:47;10.17;;;5.50;;
5085;SDS011;4715;51.660;7.082;2024-01-06T09:45:13;7.70;;;5.80;;
5085;SDS011;4715;51.660;7.082;2024-01-06T09:47:37;7.90;;;5.60;;
5085;SDS011;4715;51.660;7.082;2024-01-06T09:50:04;9.10;;;6.40;;
5085;SDS011;4715;51.660;7.082;2024-01-06T09:52:32;7.40;;;5.60;;
5085;SDS011;4715;51.660;7.082;2024-01-06T09:54:57;6.87;;;5.97;;
5085;SDS011;4715;51.660;7.082;2024-01-06T09:57:21;10.43;;;6.57;;
5085;SDS011;4715;51.660;7.082;2024-01-06T09:59:43;9.10;;;7.63;;
5085;SDS011;4715;51.660;7.082;2024-01-06T10:02:06;10.17;;;6.43;;
5085;SDS011;4715;51.660;7.082;2024-01-06T10:04:35;6.97;;;5.60;;
5085;SDS011;4715;51.660;7.082;2024-01-06T10:06:56;8.83;;;6.37;;
5085;SDS011;4715;51.660;7.082;2024-01-06T10:09:26;10.47;;;7.20;;
5085;SDS011;4715;51.660;7.082;2024-01-06T10:11:52;12.93;;;7.37;;
5085;SDS011;4715;51.660;7.082;2024-01-06T10:14:16;9.23;;;7.33;;
5085;SDS011;4715;51.660;7.082;2024-01-06T10:16:39;12.80;;;7.77;;
5085;SDS011;4715;51.660;7.082;2024-01-06T10:19:01;12.33;;;7.60;;
5085;SDS011;4715;51.660;7.082;2024-01-06T10:21:25;9.63;;;7.43;;
5085;SDS011;4715;51.660;7.082;2024-01-06T10:23:49;9.43;;;6.07;;
5085;SDS011;4715;51.660;7.082;2024-01-06T10:26:13;9.87;;;7.03;;
5085;SDS011;4715;51.660;7.082;2024-01-06T10:28:35;6.70;;;5.70;;
5085;SDS011;4715;51.660;7.082;2024-01-06T10:30:58;10.90;;;7.60;;
5085;SDS011;4715;51.660;7.082;2024-01-06T10:33:19;11.60;;;6.47;;
5085;SDS011;4715;51.660;7.082;2024-01-06T10:35:42;10.80;;;6.90;;
5085;SDS011;4715;51.660;7.082;2024-01-06T10:38:06;9.53;;;6.07;;
5085;SDS011;4715;51.660;7.082;2024-01-06T10:40:31;9.33;;;6.73;;
5085;SDS011;4715;51.660;7.082;2024-01-06T10:42:56;7.90;;;6.03;;
5085;SDS011;4715;51.660;7.082;2024-01-06T10:45:19;9.93;;;6.37;;
5085;SDS011;4715;51.660;7.082;2024-01-06T10:47:42;10.77;;;6.90;;
5085;SDS011;4715;51.660;7.082;2024-01-06T10:50:05;9.40;;;6.60;;
5085;SDS011;4715;51.660;7.082;2024-01-06T10:52:28;7.63;;;6.17;;
5085;SDS011;4715;51.660;7.082;2024-01-06T10:54:50;10.10;;;6.40;;
5085;SDS011;4715;51.660;7.082;2024-01-06T10:57:13;11.57;;;7.20;;
5085;SDS011;4715;51.660;7.082;2024-01-06T10:59:38;9.40;;;6.50;;
5085;SDS011;4715;51.660;7.082;2024-01-06T11:02:00;9.83;;;6.13;;
5085;SDS011;4715;51.660;7.082;2024-01-06T11:04:23;11.37;;;6.80;;
5085;SDS011;4715;51.660;7.082;2024-01-06T11:06:45;11.70;;;7.17;;
5085;SDS011;4715;51.660;7.082;2024-01-06T11:09:09;12.37;;;7.53;;
5085;SDS011;4715;51.660;7.082;2024-01-06T11:11:38;9.60;;;6.57;;
5085;SDS011;4715;51.660;7.082;2024-01-06T11:14:18;11.93;;;7.10;;
5085;SDS011;4715;51.660;7.082;2024-01-06T11:16:43;10.07;;;7.77;;
5085;SDS011;4715;51.660;7.082;2024-01-06T11:19:41;10.23;;;6.93;;
5085;SDS011;4715;51.660;7.082;2024-01-06T11:22:17;9.97;;;6.70;;
5085;SDS011;4715;51.660;7.082;2024-01-06T11:24:43;9.23;;;6.33;;
5085;SDS011;4715;51.660;7.082;2024-01-06T11:27:09;12.07;;;7.60;;
5085;SDS011;4715;51.660;7.082;2024-01-06T11:29:39;11.73;;;7.53;;
5085;SDS011;4715;51.660;7.082;2024-01-06T11:34:50;11.70;;;6.60;;
5085;SDS011;4715;51.660;7.082;2024-01-06T11:37:19;10.67;;;7.60;;
5085;SDS011;4715;51.660;7.082;2024-01-06T11:39:44;10.63;;;8.03;;
5085;SDS011;4715;51.660;7.082;2024-01-06T11:42:08;8.77;;;6.67;;
5085;SDS011;4715;51.660;7.082;2024-01-06T11:44:33;8.37;;;6.57;;
5085;SDS011;4715;51.660;7.082;2024-01-06T11:46:57;9.13;;;6.20;;
5085;SDS011;4715;51.660;7.082;2024-01-06T11:49:25;11.33;;;7.73;;
5085;SDS011;4715;51.660;7.082;2024-01-06T11:51:48;13.47;;;6.90;;
5085;SDS011;4715;51.660;7.082;2024-01-06T11:54:10;10.23;;;7.10;;
5085;SDS011;4715;51.660;7.082;2024-01-06T11:56:33;11.10;;;7.53;;
5085;SDS011;4715;51.660;7.082;2024-01-06T11:58:54;12.90;;;7.63;;
5085;SDS011;4715;51.660;7.082;2024-01-06T12:01:16;9.17;;;6.53;;
5085;SDS011;4715;51.660;7.082;2024-01-06T12:03:40;11.37;;;7.07;;
5085;SDS011;4715;51.660;7.082;2024-01-06T12:06:04;10.53;;;8.47;;
5085;SDS011;4715;51.660;7.082;2024-01-06T12:08:26;11.80;;;6.90;;
5085;SDS011;4715;51.660;7.082;2024-01-06T12:10:48;12.20;;;6.40;;
5085;SDS011;4715;51.660;7.082;2024-01-06T12:13:11;7.70;;;6.57;;
5085;SDS011;4715;51.660;7.082;2024-01-06T12:15:34;8.80;;;6.83;;
5085;SDS011;4715;51.660;7.082;2024-01-06T12:17:59;11.97;;;6.90;;
5085;SDS011;4715;51.660;7.082;2024-01-06T12:20:25;13.10;;;7.97;;
5085;SDS011;4715;51.660;7.082;2024-01-06T12:22:50;15.43;;;9.20;;
5085;SDS011;4715;51.660;7.082;2024-01-06T12:25:14;11.30;;;7.20;;
5085;SDS011;4715;51.660;7.082;2024-01-06T12:27:38;10.20;;;7.73;;
5085;SDS011;4715;51.660;7.082;2024-01-06T12:30:03;10.40;;;7.40;;
5085;SDS011;4715;51.660;7.082;2024-01-06T12:32:27;7.87;;;6.23;;
5085;SDS011;4715;51.660;7.082;2024-01-06T12:34:49;11.40;;;6.73;;
5085;SDS011;4715;51.660;7.082;2024-01-06T12:37:12;9.20;;;6.80;;
5085;SDS011;4715;51.660;7.082;2024-01-06T12:39:36;7.73;;;6.57;;
5085;SDS011;4715;51.660;7.082;2024-01-06T12:41:57;9.77;;;6.80;;
5085;SDS011;4715;51.660;7.082;2024-01-06T12:44:20;10.27;;;7.20;;
5085;SDS011;4715;51.660;7.082;2024-01-06T12:46:43;7.60;;;5.90;;
5085;SDS011;4715;51.660;7.082;2024-01-06T12:49:05;9.50;;;5.53;;
5085;SDS011;4715;51.660;7.082;2024-01-06T12:51:27;8.07;;;6.53;;
5085;SDS011;4715;51.660;7.082;2024-01-06T12:53:49;7.17;;;5.37;;
5085;SDS011;4715;51.660;7.082;2024-01-06T12:56:12;11.03;;;7.37;;
5085;SDS011;4715;51.660;7.082;2024-01-06T12:58:34;13.43;;;8.20;;
5085;SDS011;4715;51.660;7.082;2024-01-06T13:00:56;9.17;;;6.70;;
5085;SDS011;4715;51.660;7.082;2024-01-06T13:03:18;8.63;;;6.53;;
5085;SDS011;4715;51.660;7.082;2024-01-06T13:05:41;7.97;;;6.63;;
5085;SDS011;4715;51.660;7.082;2024-01-06T13:08:03;9.20;;;7.00;;
5085;SDS011;4715;51.660;7.082;2024-01-06T13:10:25;7.80;;;5.60;;
5085;SDS011;4715;51.660;7.082;2024-01-06T13:12:49;7.87;;;6.20;;
5085;SDS011;4715;51.660;7.082;2024-01-06T13:15:11;9.70;;;5.63;;
5085;SDS011;4715;51.660;7.082;2024-01-06T13:17:33;8.13;;;6.03;;
5085;SDS011;4715;51.660;7.082;2024-01-06T13:19:55;7.97;;;6.10;;
5085;SDS011;4715;51.660;7.082;2024-01-06T13:22:18;8.93;;;6.20;;
5085;SDS011;4715;51.660;7.082;2024-01-06T13:24:42;10.10;;;6.60;;
5085;SDS011;4715;51.660;7.082;2024-01-06T13:27:04;11.80;;;6.90;;
5085;SDS011;4715;51.660;7.082;2024-01-06T13:29:27;5.90;;;5.30;;
5085;SDS011;4715;51.660;7.082;2024-01-06T13:31:49;9.10;;;5.90;;
5085;SDS011;4715;51.660;7.082;2024-01-06T13:34:12;8.83;;;5.77;;
5085;SDS011;4715;51.660;7.082;2024-01-06T13:36:34;10.70;;;6.30;;
5085;SDS011;4715;51.660;7.082;2024-01-06T13:38:56;9.03;;;7.23;;
5085;SDS011;4715;51.660;7.082;2024-01-06T13:41:19;7.77;;;5.50;;
5085;SDS011;4715;51.660;7.082;2024-01-06T13:43:41;5.77;;;4.93;;
5085;SDS011;4715;51.660;7.082;2024-01-06T13:46:05;9.57;;;5.30;;
5085;SDS011;4715;51.660;7.082;2024-01-06T13:48:27;6.83;;;5.60;;
5085;SDS011;4715;51.660;7.082;2024-01-06T13:50:49;9.40;;;5.60;;
5085;SDS011;4715;51.660;7.082;2024-01-06T13:53:12;8.50;;;6.50;;
5085;SDS011;4715;51.660;7.082;2024-01-06T13:55:41;8.50;;;5.97;;
5085;SDS011;4715;51.660;7.082;2024-01-06T13:58:04;7.50;;;5.53;;
5085;SDS011;4715;51.660;7.082;2024-01-06T14:00:26;10.57;;;7.27;;
5085;SDS011;4715;51.660;7.082;2024-01-06T14:02:49;7.83;;;6.33;;
5085;SDS011;4715;51.660;7.082;2024-01-06T14:05:11;10.70;;;6.57;;
5085;SDS011;4715;51.660;7.082;2024-01-06T14:07:35;8.83;;;5.73;;
5085;SDS011;4715;51.660;7.082;2024-01-06T14:10:00;10.53;;;6.20;;
5085;SDS011;4715;51.660;7.082;2024-01-06T14:12:25;10.13;;;6.93;;
5085;SDS011;4715;51.660;7.082;2024-01-06T14:14:47;6.70;;;5.73;;
5085;SDS011;4715;51.660;7.082;2024-01-06T14:17:09;8.93;;;6.40;;
5085;SDS011;4715;51.660;7.082;2024-01-06T14:19:36;10.20;;;6.90;;
5085;SDS011;4715;51.660;7.082;2024-01-06T14:22:04;6.63;;;5.50;;
5085;SDS011;4715;51.660;7.082;2024-01-06T14:24:28;7.90;;;5.10;;
5085;SDS011;4715;51.660;7.082;2024-01-06T14:26:59;9.57;;;6.97;;
5085;SDS011;4715;51.660;7.082;2024-01-06T14:29:23;11.47;;;5.60;;
5085;SDS011;4715;51.660;7.082;2024-01-06T14:31:45;8.00;;;6.03;;
5085;SDS011;4715;51.660;7.082;2024-01-06T14:34:09;10.00;;;5.83;;
5085;SDS011;4715;51.660;7.082;2024-01-06T14:36:32;8.83;;;5.87;;
5085;SDS011;4715;51.660;7.082;2024-01-06T14:38:54;10.17;;;6.00;;
5085;SDS011;4715;51.660;7.082;2024-01-06T14:41:22;8.10;;;6.07;;
5085;SDS011;4715;51.660;7.082;2024-01-06T14:43:44;6.40;;;5.70;;